sensor_id;sensor_type;location;lat;lon;timestamp;pressure;altitude;pressure_sealevel;temperature;humidity
8717;BME280;4395;48.554;8.820;2022-08-21T00:00:53;96083.63;;;19.18;80.14
8717;BME280;4395;48.554;8.820;2022-08-21T00:02:58;96073.94;;;19.39;78.86
8717;BME280;4395;48.554;8.820;2022-08-21T00:05:03;96073.22;;;19.47;75.37
8717;BME280;4395;48.554;8.820;2022-08-21T00:07:06;95900.56;;;18.25;76.35
8717;BME280;4395;48.554;8.820;2022-08-21T00:09:10;96065.06;;;19.20;78.20
8717;BME280;4395;48.554;8.820;2022-08-21T00:11:13;96077.47;;;18.99;77.32
8717;BME280;4395;48.554;8.820;2022-08-21T00:13:18;96066.31;;;18.16;79.15
8717;BME280;4395;48.554;8.820;2022-08-21T00:15:24;96070.97;;;17.97;83.90
8717;BME280;4395;48.554;8.820;2022-08-21T00:17:27;96086.19;;;17.98;82.76
8717;BME280;4395;48.554;8.820;2022-08-21T00:19:30;96061.41;;;17.99;82.62
8717;BME280;4395;48.554;8.820;2022-08-21T00:21:34;96060.81;;;17.65;83.40
8717;BME280;4395;48.554;8.820;2022-08-21T00:23:38;95845.91;;;16.06;86.18
8717;BME280;4395;48.554;8.820;2022-08-21T00:25:43;95835.13;;;16.01;85.91
8717;BME280;4395;48.554;8.820;2022-08-21T00:27:46;96082.09;;;17.58;87.56
8717;BME280;4395;48.554;8.820;2022-08-21T00:29:49;96060.38;;;17.58;84.60
8717;BME280;4395;48.554;8.820;2022-08-21T00:31:53;96048.97;;;17.56;86.56
8717;BME280;4395;48.554;8.820;2022-08-21T00:33:56;96047.56;;;17.40;85.73
8717;BME280;4395;48.554;8.820;2022-08-21T00:36:02;96050.84;;;17.18;87.56
8717;BME280;4395;48.554;8.820;2022-08-21T00:38:07;95425.72;;;12.51;88.69
8717;BME280;4395;48.554;8.820;2022-08-21T00:40:14;96045.53;;;16.84;90.71
8717;BME280;4395;48.554;8.820;2022-08-21T00:42:19;96053.91;;;16.58;91.68
8717;BME280;4395;48.554;8.820;2022-08-21T00:44:21;96045.97;;;16.67;91.12
8717;BME280;4395;48.554;8.820;2022-08-21T00:46:24;96049.41;;;16.78;93.02
8717;BME280;4395;48.554;8.820;2022-08-21T00:48:29;96047.06;;;16.03;94.17
8717;BME280;4395;48.554;8.820;2022-08-21T00:50:35;95921.06;;;15.27;95.94
8717;BME280;4395;48.554;8.820;2022-08-21T00:52:41;96047.19;;;16.51;94.44
8717;BME280;4395;48.554;8.820;2022-08-21T00:54:45;95938.13;;;16.01;92.60
8717;BME280;4395;48.554;8.820;2022-08-21T00:56:54;96041.19;;;16.83;91.22
8717;BME280;4395;48.554;8.820;2022-08-21T00:59:02;96038.72;;;16.86;91.76
8717;BME280;4395;48.554;8.820;2022-08-21T01:01:06;96040.28;;;16.92;89.35
8717;BME280;4395;48.554;8.820;2022-08-21T01:03:12;96039.47;;;16.68;94.19
8717;BME280;4395;48.554;8.820;2022-08-21T01:05:15;96044.66;;;16.88;90.29
8717;BME280;4395;48.554;8.820;2022-08-21T01:07:19;96046.84;;;17.10;92.02
8717;BME280;4395;48.554;8.820;2022-08-21T01:09:26;96043.56;;;16.89;91.55
8717;BME280;4395;48.554;8.820;2022-08-21T01:11:30;95618.34;;;14.53;90.35
8717;BME280;4395;48.554;8.820;2022-08-21T01:13:36;96037.72;;;16.77;90.56
8717;BME280;4395;48.554;8.820;2022-08-21T01:15:44;95967.84;;;16.64;91.03
8717;BME280;4395;48.554;8.820;2022-08-21T01:17:49;96037.38;;;16.84;89.77
8717;BME280;4395;48.554;8.820;2022-08-21T01:19:53;95926.28;;;16.21;90.72
8717;BME280;4395;48.554;8.820;2022-08-21T01:22:00;95836.91;;;15.87;87.18
8717;BME280;4395;48.554;8.820;2022-08-21T01:24:04;96034.91;;;17.11;88.81
8717;BME280;4395;48.554;8.820;2022-08-21T01:26:07;95890.06;;;16.35;89.58
8717;BME280;4395;48.554;8.820;2022-08-21T01:28:13;95590.16;;;14.59;88.02
8717;BME280;4395;48.554;8.820;2022-08-21T01:30:18;95728.75;;;15.66;88.90
8717;BME280;4395;48.554;8.820;2022-08-21T01:32:23;96027.75;;;17.58;88.39
8717;BME280;4395;48.554;8.820;2022-08-21T01:34:26;96029.09;;;17.79;87.40
8717;BME280;4395;48.554;8.820;2022-08-21T01:36:29;96047.97;;;18.08;85.43
8717;BME280;4395;48.554;8.820;2022-08-21T01:38:34;95929.50;;;17.70;82.71
8717;BME280;4395;48.554;8.820;2022-08-21T01:40:37;96022.72;;;18.40;81.66
8717;BME280;4395;48.554;8.820;2022-08-21T01:42:41;96017.16;;;18.13;81.17
8717;BME280;4395;48.554;8.820;2022-08-21T01:44:44;96022.13;;;17.92;81.03
8717;BME280;4395;48.554;8.820;2022-08-21T01:46:47;96019.81;;;17.00;86.93
8717;BME280;4395;48.554;8.820;2022-08-21T01:48:50;96020.91;;;17.23;89.17
8717;BME280;4395;48.554;8.820;2022-08-21T01:50:53;96023.69;;;17.18;88.26
8717;BME280;4395;48.554;8.820;2022-08-21T01:52:57;95860.47;;;15.52;88.17
8717;BME280;4395;48.554;8.820;2022-08-21T01:55:02;95909.34;;;17.19;85.89
8717;BME280;4395;48.554;8.820;2022-08-21T01:57:05;96013.94;;;18.11;84.28
8717;BME280;4395;48.554;8.820;2022-08-21T01:59:09;95639.44;;;15.56;83.25
8717;BME280;4395;48.554;8.820;2022-08-21T02:01:13;96012.31;;;18.10;83.37
8717;BME280;4395;48.554;8.820;2022-08-21T02:03:16;96033.25;;;18.09;81.87
8717;BME280;4395;48.554;8.820;2022-08-21T02:05:36;95656.22;;;15.63;83.13
8717;BME280;4395;48.554;8.820;2022-08-21T02:07:41;96003.59;;;17.94;83.82
8717;BME280;4395;48.554;8.820;2022-08-21T02:09:44;96077.94;;;17.23;84.92
8717;BME280;4395;48.554;8.820;2022-08-21T02:11:51;96009.31;;;17.55;84.50
8717;BME280;4395;48.554;8.820;2022-08-21T02:13:55;96001.09;;;17.41;83.91
8717;BME280;4395;48.554;8.820;2022-08-21T02:15:58;96008.34;;;16.84;87.64
8717;BME280;4395;48.554;8.820;2022-08-21T02:18:02;95717.47;;;15.01;88.24
8717;BME280;4395;48.554;8.820;2022-08-21T02:20:06;95990.94;;;17.09;89.68
8717;BME280;4395;48.554;8.820;2022-08-21T02:22:09;96008.81;;;17.53;87.87
8717;BME280;4395;48.554;8.820;2022-08-21T02:24:12;96005.66;;;17.64;86.60
8717;BME280;4395;48.554;8.820;2022-08-21T02:26:15;95997.25;;;17.66;85.71
8717;BME280;4395;48.554;8.820;2022-08-21T02:28:19;96014.66;;;17.22;84.98
8717;BME280;4395;48.554;8.820;2022-08-21T02:30:25;95533.53;;;13.75;86.10
8717;BME280;4395;48.554;8.820;2022-08-21T02:32:28;96001.19;;;16.69;90.19
8717;BME280;4395;48.554;8.820;2022-08-21T02:34:32;95996.31;;;16.90;89.78
8717;BME280;4395;48.554;8.820;2022-08-21T02:36:35;95741.19;;;15.09;88.94
8717;BME280;4395;48.554;8.820;2022-08-21T02:38:40;95994.03;;;16.79;87.98
8717;BME280;4395;48.554;8.820;2022-08-21T02:40:46;95621.78;;;13.36;92.75
8717;BME280;4395;48.554;8.820;2022-08-21T02:42:52;96000.44;;;15.72;96.12
8717;BME280;4395;48.554;8.820;2022-08-21T02:44:56;95730.72;;;14.25;94.88
8717;BME280;4395;48.554;8.820;2022-08-21T02:46:59;95996.66;;;16.02;95.05
8717;BME280;4395;48.554;8.820;2022-08-21T02:49:02;96000.16;;;16.07;94.67
8717;BME280;4395;48.554;8.820;2022-08-21T02:51:07;95988.16;;;16.14;95.38
8717;BME280;4395;48.554;8.820;2022-08-21T02:53:12;96004.44;;;16.14;93.42
8717;BME280;4395;48.554;8.820;2022-08-21T02:55:18;95271.19;;;11.32;93.60
8717;BME280;4395;48.554;8.820;2022-08-21T02:57:21;95997.09;;;16.14;95.17
8717;BME280;4395;48.554;8.820;2022-08-21T02:59:24;95992.25;;;16.40;92.61
8717;BME280;4395;48.554;8.820;2022-08-21T03:01:28;95928.28;;;16.10;91.25
8717;BME280;4395;48.554;8.820;2022-08-21T03:03:31;95992.84;;;16.61;91.97
8717;BME280;4395;48.554;8.820;2022-08-21T03:05:37;95961.59;;;16.68;90.87
8717;BME280;4395;48.554;8.820;2022-08-21T03:07:40;95989.78;;;17.15;89.04
8717;BME280;4395;48.554;8.820;2022-08-21T03:09:43;95999.09;;;17.28;87.04
8717;BME280;4395;48.554;8.820;2022-08-21T03:11:56;95992.53;;;16.91;84.47
8717;BME280;4395;48.554;8.820;2022-08-21T03:13:59;95992.53;;;16.67;88.56
8717;BME280;4395;48.554;8.820;2022-08-21T03:16:02;96063.19;;;16.23;88.29
8717;BME280;4395;48.554;8.820;2022-08-21T03:18:12;95990.47;;;15.57;93.00
8717;BME280;4395;48.554;8.820;2022-08-21T03:20:17;95988.81;;;15.56;96.68
8717;BME280;4395;48.554;8.820;2022-08-21T03:22:21;95991.94;;;15.84;95.71
8717;BME280;4395;48.554;8.820;2022-08-21T03:24:24;95991.44;;;16.39;93.70
8717;BME280;4395;48.554;8.820;2022-08-21T03:26:28;95994.25;;;16.82;90.47
8717;BME280;4395;48.554;8.820;2022-08-21T03:28:32;95592.09;;;14.19;88.09
8717;BME280;4395;48.554;8.820;2022-08-21T03:30:35;95993.94;;;16.60;87.26
8717;BME280;4395;48.554;8.820;2022-08-21T03:32:38;95993.19;;;16.54;89.52
8717;BME280;4395;48.554;8.820;2022-08-21T03:34:43;95859.38;;;16.16;89.36
8717;BME280;4395;48.554;8.820;2022-08-21T03:36:46;95888.13;;;16.84;86.43
8717;BME280;4395;48.554;8.820;2022-08-21T03:38:50;95892.38;;;17.09;83.46
8717;BME280;4395;48.554;8.820;2022-08-21T03:40:53;95991.66;;;17.76;82.94
8717;BME280;4395;48.554;8.820;2022-08-21T03:42:56;96020.56;;;17.48;81.86
8717;BME280;4395;48.554;8.820;2022-08-21T03:45:00;95811.19;;;16.08;83.21
8717;BME280;4395;48.554;8.820;2022-08-21T03:47:03;95981.66;;;16.91;82.31
8717;BME280;4395;48.554;8.820;2022-08-21T03:49:06;95987.09;;;16.67;85.70
8717;BME280;4395;48.554;8.820;2022-08-21T03:51:11;95989.59;;;16.35;86.98
8717;BME280;4395;48.554;8.820;2022-08-21T03:53:15;96007.19;;;16.08;88.83
8717;BME280;4395;48.554;8.820;2022-08-21T03:55:18;95987.38;;;15.79;90.29
8717;BME280;4395;48.554;8.820;2022-08-21T03:57:21;95653.66;;;13.18;91.47
8717;BME280;4395;48.554;8.820;2022-08-21T03:59:24;95998.22;;;15.25;94.69
8717;BME280;4395;48.554;8.820;2022-08-21T04:01:27;95941.56;;;14.94;95.90
8717;BME280;4395;48.554;8.820;2022-08-21T04:03:30;96005.75;;;15.33;94.87
8717;BME280;4395;48.554;8.820;2022-08-21T04:05:33;95273.09;;;10.55;99.25
8717;BME280;4395;48.554;8.820;2022-08-21T04:07:38;96005.34;;;15.10;96.35
8717;BME280;4395;48.554;8.820;2022-08-21T04:09:41;96000.25;;;14.99;97.88
8717;BME280;4395;48.554;8.820;2022-08-21T04:11:44;96008.84;;;14.16;100.00
8717;BME280;4395;48.554;8.820;2022-08-21T04:13:48;96001.75;;;14.56;100.00
8717;BME280;4395;48.554;8.820;2022-08-21T04:15:51;96010.13;;;15.29;99.95
8717;BME280;4395;48.554;8.820;2022-08-21T04:17:54;95902.19;;;14.68;97.56
8717;BME280;4395;48.554;8.820;2022-08-21T04:19:57;96160.91;;;16.03;95.60
8717;BME280;4395;48.554;8.820;2022-08-21T04:22:00;96011.13;;;16.21;92.91
8717;BME280;4395;48.554;8.820;2022-08-21T04:24:05;96014.38;;;16.52;90.19
8717;BME280;4395;48.554;8.820;2022-08-21T04:26:09;95995.03;;;16.59;88.47
8717;BME280;4395;48.554;8.820;2022-08-21T04:28:12;96047.72;;;16.24;86.86
8717;BME280;4395;48.554;8.820;2022-08-21T04:30:16;96028.75;;;15.40;93.54
8717;BME280;4395;48.554;8.820;2022-08-21T04:32:22;96028.97;;;14.90;97.20
8717;BME280;4395;48.554;8.820;2022-08-21T04:34:25;96023.91;;;14.68;98.65
8717;BME280;4395;48.554;8.820;2022-08-21T04:36:28;95242.31;;;8.91;98.18
8717;BME280;4395;48.554;8.820;2022-08-21T04:38:31;95961.84;;;13.92;100.00
8717;BME280;4395;48.554;8.820;2022-08-21T04:40:39;96031.41;;;14.91;98.76
8717;BME280;4395;48.554;8.820;2022-08-21T04:42:44;96038.50;;;14.77;98.51
8717;BME280;4395;48.554;8.820;2022-08-21T04:44:48;95848.22;;;13.42;98.97
8717;BME280;4395;48.554;8.820;2022-08-21T04:46:51;96043.16;;;13.65;100.00
8717;BME280;4395;48.554;8.820;2022-08-21T04:48:54;96037.16;;;13.42;100.00
8717;BME280;4395;48.554;8.820;2022-08-21T04:51:01;95822.91;;;12.20;100.00
8717;BME280;4395;48.554;8.820;2022-08-21T04:53:08;96030.66;;;14.70;100.00
8717;BME280;4395;48.554;8.820;2022-08-21T04:55:13;95640.50;;;12.46;100.00
8717;BME280;4395;48.554;8.820;2022-08-21T04:57:18;96037.50;;;15.22;99.02
8717;BME280;4395;48.554;8.820;2022-08-21T04:59:24;96036.59;;;15.42;98.00
8717;BME280;4395;48.554;8.820;2022-08-21T05:01:30;96045.69;;;15.71;95.77
8717;BME280;4395;48.554;8.820;2022-08-21T05:03:36;96040.75;;;16.13;94.14
8717;BME280;4395;48.554;8.820;2022-08-21T05:05:40;96041.69;;;16.32;91.51
8717;BME280;4395;48.554;8.820;2022-08-21T05:07:45;96053.09;;;16.58;90.11
8717;BME280;4395;48.554;8.820;2022-08-21T05:09:48;96045.59;;;16.50;89.37
8717;BME280;4395;48.554;8.820;2022-08-21T05:11:52;95283.03;;;11.36;89.25
8717;BME280;4395;48.554;8.820;2022-08-21T05:13:56;95914.19;;;15.40;91.92
8717;BME280;4395;48.554;8.820;2022-08-21T05:15:59;96066.63;;;16.63;90.19
8717;BME280;4395;48.554;8.820;2022-08-21T05:18:01;96053.84;;;16.92;88.33
8717;BME280;4395;48.554;8.820;2022-08-21T05:20:05;96053.03;;;17.16;87.13
8717;BME280;4395;48.554;8.820;2022-08-21T05:22:08;96054.88;;;16.96;84.80
8717;BME280;4395;48.554;8.820;2022-08-21T05:24:11;96057.56;;;16.44;86.67
8717;BME280;4395;48.554;8.820;2022-08-21T05:26:14;96060.84;;;16.12;87.47
8717;BME280;4395;48.554;8.820;2022-08-21T05:28:19;96048.84;;;15.84;90.23
8717;BME280;4395;48.554;8.820;2022-08-21T05:30:23;96062.50;;;15.68;92.56
8717;BME280;4395;48.554;8.820;2022-08-21T05:32:26;96027.50;;;15.18;94.69
8717;BME280;4395;48.554;8.820;2022-08-21T05:34:29;96067.44;;;15.46;96.58
8717;BME280;4395;48.554;8.820;2022-08-21T05:36:32;95951.94;;;14.72;96.86
8717;BME280;4395;48.554;8.820;2022-08-21T05:38:35;96059.91;;;15.33;100.00
8717;BME280;4395;48.554;8.820;2022-08-21T05:40:37;96062.09;;;15.31;100.00
8717;BME280;4395;48.554;8.820;2022-08-21T05:42:40;96055.63;;;15.27;100.00
8717;BME280;4395;48.554;8.820;2022-08-21T05:44:43;95990.88;;;14.81;100.00
8717;BME280;4395;48.554;8.820;2022-08-21T05:46:50;96072.41;;;15.24;100.00
8717;BME280;4395;48.554;8.820;2022-08-21T05:48:53;96066.44;;;15.27;100.00
8717;BME280;4395;48.554;8.820;2022-08-21T05:50:56;96058.84;;;15.29;100.00
8717;BME280;4395;48.554;8.820;2022-08-21T05:52:59;96065.34;;;15.33;100.00
8717;BME280;4395;48.554;8.820;2022-08-21T05:55:08;96067.03;;;15.13;100.00
8717;BME280;4395;48.554;8.820;2022-08-21T05:57:11;96071.63;;;15.18;100.00
8717;BME280;4395;48.554;8.820;2022-08-21T05:59:13;96067.25;;;15.27;100.00
8717;BME280;4395;48.554;8.820;2022-08-21T06:01:16;96061.31;;;15.25;100.00
8717;BME280;4395;48.554;8.820;2022-08-21T06:03:22;96069.66;;;15.34;100.00
8717;BME280;4395;48.554;8.820;2022-08-21T06:05:26;96071.78;;;15.42;100.00
8717;BME280;4395;48.554;8.820;2022-08-21T06:07:37;96077.19;;;15.47;100.00
8717;BME280;4395;48.554;8.820;2022-08-21T06:09:41;96073.59;;;15.57;100.00
8717;BME280;4395;48.554;8.820;2022-08-21T06:11:44;96072.81;;;15.61;100.00
8717;BME280;4395;48.554;8.820;2022-08-21T06:13:46;96073.28;;;15.73;100.00
8717;BME280;4395;48.554;8.820;2022-08-21T06:15:50;96071.09;;;15.81;100.00
8717;BME280;4395;48.554;8.820;2022-08-21T06:18:03;96077.53;;;15.90;100.00
8717;BME280;4395;48.554;8.820;2022-08-21T06:20:08;95937.69;;;15.10;100.00
8717;BME280;4395;48.554;8.820;2022-08-21T06:22:11;96049.63;;;15.89;100.00
8717;BME280;4395;48.554;8.820;2022-08-21T06:24:14;96079.56;;;16.08;100.00
8717;BME280;4395;48.554;8.820;2022-08-21T06:26:16;94848.38;;;8.45;100.00
8717;BME280;4395;48.554;8.820;2022-08-21T06:28:20;96070.22;;;16.24;100.00
8717;BME280;4395;48.554;8.820;2022-08-21T06:30:23;96069.31;;;16.34;99.88
8717;BME280;4395;48.554;8.820;2022-08-21T06:32:26;96069.22;;;16.44;99.32
8717;BME280;4395;48.554;8.820;2022-08-21T06:34:29;96070.53;;;16.52;99.00
8717;BME280;4395;48.554;8.820;2022-08-21T06:36:33;96067.00;;;16.51;97.38
8717;BME280;4395;48.554;8.820;2022-08-21T06:38:36;95882.72;;;15.49;95.35
8717;BME280;4395;48.554;8.820;2022-08-21T06:40:39;95926.09;;;15.44;94.86
8717;BME280;4395;48.554;8.820;2022-08-21T06:42:48;96059.91;;;16.84;96.12
8717;BME280;4395;48.554;8.820;2022-08-21T06:44:51;96063.91;;;16.92;96.39
8717;BME280;4395;48.554;8.820;2022-08-21T06:46:54;96054.19;;;17.10;96.04
8717;BME280;4395;48.554;8.820;2022-08-21T06:48:57;96051.06;;;17.21;95.63
8717;BME280;4395;48.554;8.820;2022-08-21T06:51:00;96055.78;;;17.34;94.68
8717;BME280;4395;48.554;8.820;2022-08-21T06:53:06;96048.91;;;17.42;95.19
8717;BME280;4395;48.554;8.820;2022-08-21T06:55:11;95857.81;;;16.34;95.12
8717;BME280;4395;48.554;8.820;2022-08-21T06:57:22;96054.56;;;17.64;94.00
8717;BME280;4395;48.554;8.820;2022-08-21T06:59:26;96058.88;;;17.71;95.52
8717;BME280;4395;48.554;8.820;2022-08-21T07:01:29;96055.94;;;17.86;95.77
8717;BME280;4395;48.554;8.820;2022-08-21T07:03:35;96056.28;;;17.98;94.48
8717;BME280;4395;48.554;8.820;2022-08-21T07:05:39;96052.38;;;18.04;94.23
8717;BME280;4395;48.554;8.820;2022-08-21T07:07:42;96057.75;;;18.09;93.71
8717;BME280;4395;48.554;8.820;2022-08-21T07:09:47;96085.38;;;18.16;94.61
8717;BME280;4395;48.554;8.820;2022-08-21T07:11:52;95989.91;;;17.66;94.09
8717;BME280;4395;48.554;8.820;2022-08-21T07:13:56;95836.25;;;17.04;93.20
8717;BME280;4395;48.554;8.820;2022-08-21T07:15:59;96055.06;;;18.42;91.57
8717;BME280;4395;48.554;8.820;2022-08-21T07:18:05;96058.16;;;18.35;92.29
8717;BME280;4395;48.554;8.820;2022-08-21T07:20:10;96052.13;;;18.38;91.27
8717;BME280;4395;48.554;8.820;2022-08-21T07:22:15;96063.72;;;18.62;90.54
8717;BME280;4395;48.554;8.820;2022-08-21T07:24:20;96062.13;;;18.75;88.82
8717;BME280;4395;48.554;8.820;2022-08-21T07:26:25;96061.13;;;18.85;87.48
8717;BME280;4395;48.554;8.820;2022-08-21T07:28:28;96058.50;;;18.93;87.14
8717;BME280;4395;48.554;8.820;2022-08-21T07:30:31;96064.97;;;18.98;86.53
8717;BME280;4395;48.554;8.820;2022-08-21T07:32:34;95949.66;;;18.34;86.29
8717;BME280;4395;48.554;8.820;2022-08-21T07:34:38;96056.00;;;19.11;85.01
8717;BME280;4395;48.554;8.820;2022-08-21T07:36:41;96055.59;;;19.17;83.93
8717;BME280;4395;48.554;8.820;2022-08-21T07:38:44;96055.88;;;19.30;82.78
8717;BME280;4395;48.554;8.820;2022-08-21T07:40:48;95935.66;;;18.54;81.60
8717;BME280;4395;48.554;8.820;2022-08-21T07:42:53;96053.66;;;19.45;80.45
8717;BME280;4395;48.554;8.820;2022-08-21T07:44:56;95639.88;;;16.95;80.07
8717;BME280;4395;48.554;8.820;2022-08-21T07:46:59;96047.41;;;19.58;80.05
8717;BME280;4395;48.554;8.820;2022-08-21T07:49:02;96044.97;;;19.71;79.27
8717;BME280;4395;48.554;8.820;2022-08-21T07:51:07;96047.56;;;19.76;78.50
8717;BME280;4395;48.554;8.820;2022-08-21T07:53:11;96046.84;;;19.84;78.57
8717;BME280;4395;48.554;8.820;2022-08-21T07:55:15;96050.03;;;20.00;78.14
8717;BME280;4395;48.554;8.820;2022-08-21T07:57:18;96047.47;;;20.03;77.22
8717;BME280;4395;48.554;8.820;2022-08-21T07:59:23;96027.09;;;20.01;77.29
8717;BME280;4395;48.554;8.820;2022-08-21T08:01:26;96051.34;;;20.24;76.41
8717;BME280;4395;48.554;8.820;2022-08-21T08:03:29;96051.22;;;20.30;75.33
8717;BME280;4395;48.554;8.820;2022-08-21T08:05:32;96049.97;;;20.36;74.81
8717;BME280;4395;48.554;8.820;2022-08-21T08:07:38;96056.72;;;20.38;73.68
8717;BME280;4395;48.554;8.820;2022-08-21T08:09:41;96050.09;;;20.53;73.03
8717;BME280;4395;48.554;8.820;2022-08-21T08:11:44;96047.25;;;20.58;73.76
8717;BME280;4395;48.554;8.820;2022-08-21T08:13:49;95959.03;;;19.96;73.77
8717;BME280;4395;48.554;8.820;2022-08-21T08:15:54;96043.88;;;20.83;72.87
8717;BME280;4395;48.554;8.820;2022-08-21T08:17:57;96050.19;;;20.93;70.72
8717;BME280;4395;48.554;8.820;2022-08-21T08:20:01;95976.44;;;20.62;69.33
8717;BME280;4395;48.554;8.820;2022-08-21T08:22:12;96041.19;;;21.23;68.51
8717;BME280;4395;48.554;8.820;2022-08-21T08:24:16;95898.50;;;20.47;68.56
8717;BME280;4395;48.554;8.820;2022-08-21T08:26:20;96035.47;;;21.50;67.69
8717;BME280;4395;48.554;8.820;2022-08-21T08:28:24;96031.47;;;21.57;67.59
8717;BME280;4395;48.554;8.820;2022-08-21T08:30:27;96023.44;;;21.69;67.44
8717;BME280;4395;48.554;8.820;2022-08-21T08:32:35;96023.13;;;21.79;67.88
8717;BME280;4395;48.554;8.820;2022-08-21T08:34:38;96023.94;;;21.88;67.42
8717;BME280;4395;48.554;8.820;2022-08-21T08:36:41;96021.50;;;21.95;66.71
8717;BME280;4395;48.554;8.820;2022-08-21T08:38:45;95963.09;;;21.74;65.68
8717;BME280;4395;48.554;8.820;2022-08-21T08:40:54;96024.13;;;22.18;65.62
8717;BME280;4395;48.554;8.820;2022-08-21T08:43:01;96018.13;;;22.33;63.14
8717;BME280;4395;48.554;8.820;2022-08-21T08:45:09;95926.88;;;21.94;61.62
8717;BME280;4395;48.554;8.820;2022-08-21T08:47:14;96026.47;;;22.62;62.15
8717;BME280;4395;48.554;8.820;2022-08-21T08:49:23;96013.50;;;22.89;60.56
8717;BME280;4395;48.554;8.820;2022-08-21T08:51:39;96003.28;;;23.06;59.29
8717;BME280;4395;48.554;8.820;2022-08-21T08:53:48;95868.13;;;22.18;58.44
8717;BME280;4395;48.554;8.820;2022-08-21T08:55:52;96003.34;;;23.27;58.14
8717;BME280;4395;48.554;8.820;2022-08-21T08:57:56;96004.56;;;23.38;57.49
8717;BME280;4395;48.554;8.820;2022-08-21T09:00:01;96000.06;;;23.42;55.35
8717;BME280;4395;48.554;8.820;2022-08-21T09:02:10;95859.44;;;22.54;54.73
8717;BME280;4395;48.554;8.820;2022-08-21T09:04:18;95995.44;;;23.64;52.91
8717;BME280;4395;48.554;8.820;2022-08-21T09:06:47;95995.84;;;23.75;51.42
8717;BME280;4395;48.554;8.820;2022-08-21T09:09:01;95998.38;;;24.00;51.38
8717;BME280;4395;48.554;8.820;2022-08-21T09:11:09;95998.84;;;24.02;49.76
8717;BME280;4395;48.554;8.820;2022-08-21T09:13:21;95991.44;;;23.82;48.50
8717;BME280;4395;48.554;8.820;2022-08-21T09:15:30;95918.03;;;23.58;46.62
8717;BME280;4395;48.554;8.820;2022-08-21T09:17:53;95960.34;;;24.11;47.14
8717;BME280;4395;48.554;8.820;2022-08-21T09:20:11;95964.72;;;24.45;46.65
8717;BME280;4395;48.554;8.820;2022-08-21T09:22:23;95751.50;;;23.05;46.49
8717;BME280;4395;48.554;8.820;2022-08-21T09:24:35;95998.91;;;24.81;45.02
8717;BME280;4395;48.554;8.820;2022-08-21T09:26:47;95943.69;;;24.61;43.08
8717;BME280;4395;48.554;8.820;2022-08-21T09:28:54;95984.50;;;24.96;42.33
8717;BME280;4395;48.554;8.820;2022-08-21T09:30:58;95978.13;;;25.04;41.52
8717;BME280;4395;48.554;8.820;2022-08-21T09:33:04;95978.22;;;25.20;41.54
8717;BME280;4395;48.554;8.820;2022-08-21T09:35:10;95943.19;;;25.05;41.96
8717;BME280;4395;48.554;8.820;2022-08-21T09:37:18;95982.69;;;25.49;42.06
8717;BME280;4395;48.554;8.820;2022-08-21T09:39:24;95977.53;;;25.23;41.87
8717;BME280;4395;48.554;8.820;2022-08-21T09:41:29;95976.97;;;25.17;42.82
8717;BME280;4395;48.554;8.820;2022-08-21T09:43:33;95983.47;;;25.49;42.04
8717;BME280;4395;48.554;8.820;2022-08-21T09:45:38;95975.56;;;25.48;41.80
8717;BME280;4395;48.554;8.820;2022-08-21T09:47:42;95981.97;;;25.76;42.12
8717;BME280;4395;48.554;8.820;2022-08-21T09:49:45;95978.97;;;25.81;42.52
8717;BME280;4395;48.554;8.820;2022-08-21T09:51:50;95979.19;;;26.01;41.79
8717;BME280;4395;48.554;8.820;2022-08-21T09:54:09;95977.81;;;25.82;40.60
8717;BME280;4395;48.554;8.820;2022-08-21T09:56:21;95970.44;;;25.34;41.83
8717;BME280;4395;48.554;8.820;2022-08-21T09:58:47;95980.13;;;25.80;41.08
8717;BME280;4395;48.554;8.820;2022-08-21T10:00:57;95969.53;;;26.07;40.42
8717;BME280;4395;48.554;8.820;2022-08-21T10:03:10;95966.63;;;26.43;40.50
8717;BME280;4395;48.554;8.820;2022-08-21T10:05:17;95971.75;;;26.73;39.58
8717;BME280;4395;48.554;8.820;2022-08-21T10:07:22;95971.22;;;26.11;39.49
8717;BME280;4395;48.554;8.820;2022-08-21T10:09:27;95897.00;;;25.75;39.84
8717;BME280;4395;48.554;8.820;2022-08-21T10:11:30;95956.34;;;26.56;38.31
8717;BME280;4395;48.554;8.820;2022-08-21T10:13:44;95963.41;;;26.85;38.17
8717;BME280;4395;48.554;8.820;2022-08-21T10:16:04;95961.63;;;27.08;38.07
8717;BME280;4395;48.554;8.820;2022-08-21T10:18:15;95962.28;;;27.02;37.62
8717;BME280;4395;48.554;8.820;2022-08-21T10:20:25;95861.75;;;26.68;37.82
8717;BME280;4395;48.554;8.820;2022-08-21T10:22:36;96011.59;;;27.54;37.78
8717;BME280;4395;48.554;8.820;2022-08-21T10:24:55;95956.59;;;27.61;37.68
8717;BME280;4395;48.554;8.820;2022-08-21T10:27:14;95952.41;;;27.67;37.79
8717;BME280;4395;48.554;8.820;2022-08-21T10:29:41;95955.44;;;27.62;37.13
8717;BME280;4395;48.554;8.820;2022-08-21T10:31:52;95953.31;;;27.40;38.53
8717;BME280;4395;48.554;8.820;2022-08-21T10:34:11;95896.53;;;26.88;37.72
8717;BME280;4395;48.554;8.820;2022-08-21T10:36:20;95943.84;;;27.57;37.20
8717;BME280;4395;48.554;8.820;2022-08-21T10:38:58;95940.06;;;27.80;36.51
8717;BME280;4395;48.554;8.820;2022-08-21T10:41:31;95935.13;;;27.90;35.74
8717;BME280;4395;48.554;8.820;2022-08-21T10:43:44;95945.44;;;28.12;35.39
8717;BME280;4395;48.554;8.820;2022-08-21T10:45:58;95852.88;;;27.79;35.09
8717;BME280;4395;48.554;8.820;2022-08-21T10:48:06;95893.53;;;28.21;34.69
8717;BME280;4395;48.554;8.820;2022-08-21T10:50:19;95931.16;;;28.68;34.32
8717;BME280;4395;48.554;8.820;2022-08-21T10:52:35;95931.19;;;28.91;34.07
8717;BME280;4395;48.554;8.820;2022-08-21T10:54:49;95925.47;;;29.03;32.90
8717;BME280;4395;48.554;8.820;2022-08-21T10:56:59;95780.53;;;28.35;33.50
8717;BME280;4395;48.554;8.820;2022-08-21T10:59:20;95917.91;;;28.35;34.22
8717;BME280;4395;48.554;8.820;2022-08-21T11:01:30;95928.28;;;28.41;33.79
8717;BME280;4395;48.554;8.820;2022-08-21T11:03:37;95919.56;;;28.81;32.76
8717;BME280;4395;48.554;8.820;2022-08-21T11:05:45;95915.75;;;29.12;32.45
8717;BME280;4395;48.554;8.820;2022-08-21T11:07:54;95874.81;;;28.99;32.56
8717;BME280;4395;48.554;8.820;2022-08-21T11:10:08;95913.41;;;29.41;32.30
8717;BME280;4395;48.554;8.820;2022-08-21T11:12:20;95853.94;;;28.78;32.26
8717;BME280;4395;48.554;8.820;2022-08-21T11:14:34;95906.97;;;29.33;32.17
8717;BME280;4395;48.554;8.820;2022-08-21T11:16:56;95853.50;;;28.99;31.56
8717;BME280;4395;48.554;8.820;2022-08-21T11:19:07;95908.94;;;29.33;32.68
8717;BME280;4395;48.554;8.820;2022-08-21T11:21:27;95845.41;;;28.87;33.22
8717;BME280;4395;48.554;8.820;2022-08-21T11:23:39;95900.25;;;29.61;31.97